24h
CUSTOMER SERVICE:
Saartelennuliinid: +372 58856336 (24/7)
Airport ticket info +372 6058887; +372 55603687

11.02.2019 hommikune Transaviabaltika lend KTB670 Tallinn - Kärdla ja KTB671 Kärdla – Tallinn väljalend jääb ära. Lennu ära jäämise põhjustab ilmastikuolu Kärdla lennuväljal. Reisijatele võimaldatakse tasuta lennupileti ümberbroneerimine reisija soovi kohasele mõnele teisele Tallinn-Kärdla või Kärdla-Tallinn lennule. Reisijatele kes ei soovi lennupileti ümberbroneerimist teisele lennule tagastatakse piletiraha. Oma soovist tuleb teada anda e-mailile [email protected] Lisainformatsioon telefonil 58856336.

EEKA Kärdla lennuväli FCEO32 EETN 110400

TAF EEKA 110400Z 1105/1111 16010KT 4000 SN OVC003

TEMPO 1105/1111 0600 FG OVC001=

SPECI EEKA 110427Z 12007KT 5000 OVC002 01/01 Q0991=
Date: 
11/02/2019